Time;durP1;ratioP1;P1;durP2;ratioP2;P2;SDS_P1;SDS_P2;PMS_P1;PMS_P2;Temp;Humidity;BMP_temperature;BMP_pressure;BME280_temperature;BME280_humidity;BME280_pressure;Samples;Min_cycle;Max_cycle;Signal;HPM_P1;HPM_P2
2022/04/22 00:02:25;;;;;;;6.33;5.07;;;;;;;3.29;83.09;96825.94;6155086;28;20245;-81
2022/04/22 00:05:27;;;;;;;6.13;5.10;;;;;;;3.31;83.59;96827.50;6154711;28;20234;-81
2022/04/22 00:08:30;;;;;;;5.47;4.90;;;;;;;3.29;83.14;96824.16;6170768;28;20247;-81
2022/04/22 00:11:32;;;;;;;5.97;5.37;;;;;;;3.31;83.63;96814.47;6138963;28;20238;-81
2022/04/22 00:14:40;;;;;;;5.63;5.13;;;;;;;3.32;83.49;96807.47;6153927;28;20233;-81
2022/04/22 00:17:43;;;;;;;8.50;5.57;;;;;;;3.36;83.66;96808.97;6156185;28;20239;-81
2022/04/22 00:20:45;;;;;;;6.47;5.10;;;;;;;3.38;83.68;96806.25;6154781;28;20229;-81
2022/04/22 00:23:49;;;;;;;6.27;4.73;;;;;;;3.43;83.58;96804.16;6154826;28;20235;-81
2022/04/22 00:26:51;;;;;;;5.87;4.80;;;;;;;3.43;83.63;96797.19;6172379;28;20283;-81
2022/04/22 00:29:53;;;;;;;5.53;4.93;;;;;;;3.42;83.38;96787.69;6138144;28;20241;-81
2022/04/22 00:32:55;;;;;;;6.90;4.30;;;;;;;3.41;83.17;96785.16;6155087;28;20241;-81
2022/04/22 00:35:57;;;;;;;6.80;5.07;;;;;;;3.39;83.25;96785.28;6138214;28;20263;-81
2022/04/22 00:38:59;;;;;;;6.67;5.13;;;;;;;3.39;83.42;96780.09;6137955;28;20319;-81
2022/04/22 00:42:09;;;;;;;5.03;4.50;;;;;;;3.40;83.44;96776.50;6114200;28;20274;-82
2022/04/22 00:45:11;;;;;;;4.93;4.40;;;;;;;3.40;83.07;96776.50;6154511;28;20566;-81
2022/04/22 00:48:15;;;;;;;6.80;4.73;;;;;;;3.42;83.56;96772.03;6153975;28;20236;-81
2022/04/22 00:51:21;;;;;;;5.30;4.80;;;;;;;3.43;83.22;96765.88;6138099;28;20266;-81
2022/04/22 00:54:24;;;;;;;5.80;4.77;;;;;;;3.42;83.17;96765.97;6160419;28;20244;-81
2022/04/22 00:57:26;;;;;;;6.83;4.63;;;;;;;3.40;82.97;96766.06;6158275;28;20234;-81
2022/04/22 01:00:28;;;;;;;5.27;4.73;;;;;;;3.38;83.37;96760.16;6151039;28;20712;-81
2022/04/22 01:03:30;;;;;;;5.03;4.53;;;;;;;3.38;83.43;96759.31;6158212;28;20707;-81
2022/04/22 01:09:56;;;;;;;7.23;4.77;;;;;;;3.34;83.47;96759.50;6162710;28;20547;-81
2022/04/22 01:12:58;;;;;;;5.23;4.73;;;;;;;3.28;83.26;96757.31;6163138;28;20233;-81
2022/04/22 01:16:00;;;;;;;5.87;5.27;;;;;;;3.27;83.72;96757.41;6160757;28;20247;-81
2022/04/22 01:19:02;;;;;;;5.77;4.50;;;;;;;3.23;83.83;96748.09;6158141;28;20778;-82
2022/04/22 01:22:05;;;;;;;4.50;4.10;;;;;;;3.18;83.71;96742.38;6159248;28;20260;-81
2022/04/22 01:25:07;;;;;;;5.03;4.53;;;;;;;3.19;84.19;96744.06;6166805;28;20227;-81
2022/04/22 01:28:10;;;;;;;4.80;4.30;;;;;;;3.21;84.17;96731.72;6133756;28;20339;-81
2022/04/22 01:31:12;;;;;;;5.00;4.60;;;;;;;3.21;84.00;96729.97;6155204;28;20231;-81
2022/04/22 01:34:14;;;;;;;5.53;4.80;;;;;;;3.20;84.22;96728.28;6159272;28;20237;-82
2022/04/22 01:37:16;;;;;;;5.10;4.60;;;;;;;3.23;84.27;96732.47;6142145;28;20229;-81
2022/04/22 01:40:18;;;;;;;5.10;4.60;;;;;;;3.24;84.25;96721.94;6142047;28;20705;-81
2022/04/22 01:43:21;;;;;;;5.17;4.67;;;;;;;3.25;84.35;96718.41;6158449;28;20485;-81
2022/04/22 01:46:23;;;;;;;5.50;5.00;;;;;;;3.27;84.15;96713.09;6158180;28;20236;-82
2022/04/22 01:49:25;;;;;;;5.00;4.50;;;;;;;3.24;84.23;96708.06;6132682;28;20700;-81
2022/04/22 01:52:28;;;;;;;5.50;4.90;;;;;;;3.23;84.14;96706.41;6142317;28;20323;-81
2022/04/22 01:55:30;;;;;;;5.67;4.80;;;;;;;3.24;84.29;96706.31;6159647;28;20295;-82
2022/04/22 01:58:35;;;;;;;6.20;5.53;;;;;;;3.19;84.18;96695.34;6156977;28;20242;-81
2022/04/22 02:01:37;;;;;;;6.50;4.93;;;;;;;3.15;84.15;96686.06;6157933;28;20607;-82
2022/04/22 02:04:39;;;;;;;7.80;5.43;;;;;;;3.17;84.69;96688.56;6157741;28;20231;-82
2022/04/22 02:07:41;;;;;;;5.77;5.13;;;;;;;3.14;84.06;96689.59;6142290;28;20708;-81
2022/04/22 02:10:44;;;;;;;6.67;5.93;;;;;;;3.17;84.48;96683.34;6157052;28;20232;-82
2022/04/22 02:13:46;;;;;;;5.90;5.30;;;;;;;3.22;84.48;96683.88;6142130;28;20738;-81
2022/04/22 02:16:48;;;;;;;6.77;5.80;;;;;;;3.26;84.67;96678.34;6157819;28;20309;-81
2022/04/22 02:19:50;;;;;;;8.00;6.23;;;;;;;3.33;85.17;96673.56;6140831;28;20223;-81
2022/04/22 02:22:52;;;;;;;6.90;5.77;;;;;;;3.38;85.16;96662.81;6156782;28;20247;-81
2022/04/22 02:25:54;;;;;;;7.20;6.20;;;;;;;3.38;84.92;96671.50;6159678;28;20302;-81
2022/04/22 02:28:56;;;;;;;8.57;6.20;;;;;;;3.43;85.33;96663.34;6168392;28;20265;-82
2022/04/22 02:31:58;;;;;;;6.97;6.00;;;;;;;3.46;85.30;96668.34;6154124;28;20291;-81
2022/04/22 02:35:00;;;;;;;9.77;6.80;;;;;;;3.48;84.86;96666.47;6140876;28;20225;-81
2022/04/22 02:38:02;;;;;;;7.13;6.43;;;;;;;3.50;85.23;96672.41;6133852;28;20220;-81
2022/04/22 02:47:46;;;;;;;6.90;6.10;;;;;;;3.55;84.74;96662.50;6156436;28;20609;-82
2022/04/22 02:50:48;;;;;;;7.23;6.53;;;;;;;3.58;85.24;96657.09;6156323;28;20368;-81
2022/04/22 02:53:52;;;;;;;8.23;6.93;;;;;;;3.63;84.73;96660.19;6141485;28;20288;-81
2022/04/22 02:56:54;;;;;;;7.87;5.97;;;;;;;3.67;84.69;96644.25;6155379;28;20652;-81
2022/04/22 02:59:57;;;;;;;9.77;7.40;;;;;;;3.71;84.56;96647.44;6155945;28;20339;-82
2022/04/22 03:02:59;;;;;;;7.27;6.13;;;;;;;3.70;84.67;96648.38;6141506;28;20233;-81
2022/04/22 03:06:02;;;;;;;7.17;6.30;;;;;;;3.72;84.61;96644.75;6160552;28;20535;-83
2022/04/22 03:09:07;;;;;;;9.37;6.83;;;;;;;3.72;84.99;96643.91;6145367;28;20319;-81
2022/04/22 03:12:09;;;;;;;8.03;6.20;;;;;;;3.73;84.94;96637.75;6155766;28;20207;-81
2022/04/22 03:15:11;;;;;;;8.67;7.03;;;;;;;3.75;84.77;96632.44;6155390;28;20429;-81
2022/04/22 03:18:13;;;;;;;8.87;6.67;;;;;;;3.75;84.70;96640.25;6154872;28;20339;-82
2022/04/22 03:21:16;;;;;;;9.20;7.20;;;;;;;3.78;85.00;96640.06;6157268;28;20256;-81
2022/04/22 03:24:18;;;;;;;7.47;6.63;;;;;;;3.83;84.90;96635.31;6140805;28;20684;-82
2022/04/22 03:27:20;;;;;;;7.93;7.00;;;;;;;3.88;84.96;96643.69;6168702;28;20216;-81
2022/04/22 03:30:22;;;;;;;7.63;6.13;;;;;;;3.97;84.30;96643.03;6139857;28;20760;-81
2022/04/22 03:33:24;;;;;;;9.43;5.87;;;;;;;4.03;84.84;96647.81;6156004;28;20660;-82
2022/04/22 03:36:26;;;;;;;7.30;6.37;;;;;;;4.12;84.47;96641.94;6139504;28;20236;-82
2022/04/22 03:39:28;;;;;;;6.87;6.17;;;;;;;4.20;84.45;96644.81;6154902;28;20603;-81
2022/04/22 03:42:30;;;;;;;6.80;6.10;;;;;;;4.37;83.69;96638.41;6154681;28;20225;-82
2022/04/22 03:45:32;;;;;;;7.60;6.50;;;;;;;4.44;83.46;96653.53;6156149;28;20356;-81
2022/04/22 03:48:34;;;;;;;8.13;7.00;;;;;;;4.51;83.50;96640.84;6156358;28;20730;-83
2022/04/22 03:51:36;;;;;;;10.60;7.90;;;;;;;4.74;81.00;96641.78;6140162;28;20247;-82
2022/04/22 03:54:38;;;;;;;10.20;7.63;;;;;;;4.88;81.52;96651.22;6140988;28;20934;-82
2022/04/22 04:01:01;;;;;;;10.50;6.97;;;;;;;4.99;81.36;96649.47;6157703;28;20328;-81
2022/04/22 04:04:03;;;;;;;7.80;7.00;;;;;;;5.06;81.59;96661.16;6155327;28;20268;-81
2022/04/22 04:07:05;;;;;;;7.47;6.53;;;;;;;5.08;81.97;96654.03;6139541;28;20292;-82
2022/04/22 04:16:49;;;;;;;8.10;7.10;;;;;;;5.24;80.27;96652.88;6171413;28;20417;-82
2022/04/22 04:23:14;;;;;;;7.33;6.63;;;;;;;5.33;79.28;96652.16;6156554;28;20234;-81
2022/04/22 04:26:18;;;;;;;7.67;6.87;;;;;;;5.37;79.38;96658.84;6154795;28;20730;-81
2022/04/22 04:29:20;;;;;;;7.73;6.93;;;;;;;5.40;79.46;96655.97;6152425;28;20321;-82
2022/04/22 04:32:22;;;;;;;8.93;7.73;;;;;;;5.45;78.93;96661.72;6138163;28;20761;-82
2022/04/22 04:35:23;;;;;;;7.07;6.33;;;;;;;5.51;79.22;96663.84;6154251;28;20229;-81
2022/04/22 04:38:27;;;;;;;8.03;7.23;;;;;;;5.56;79.05;96664.34;6138492;28;20225;-81
2022/04/22 04:41:29;;;;;;;8.70;6.97;;;;;;;5.60;78.76;96659.69;6153532;28;20241;-82
2022/04/22 04:44:31;;;;;;;7.63;6.83;;;;;;;5.63;78.58;96675.16;6155479;28;20221;-82
2022/04/22 04:47:41;;;;;;;9.10;7.37;;;;;;;5.66;78.49;96678.41;6154803;28;20237;-82
2022/04/22 04:50:44;;;;;;;8.33;7.50;;;;;;;5.69;78.30;96674.72;6154898;28;20737;-82
2022/04/22 04:53:46;;;;;;;9.50;7.00;;;;;;;5.69;78.82;96669.47;6153339;28;20728;-82
2022/04/22 04:56:50;;;;;;;9.03;7.23;;;;;;;5.69;78.90;96670.28;6154030;28;20245;-82
2022/04/22 04:59:52;;;;;;;8.20;7.13;;;;;;;5.70;78.61;96669.34;6154291;28;20296;-82
2022/04/22 05:02:57;;;;;;;8.27;7.40;;;;;;;5.73;79.38;96663.88;6153739;28;20314;-82
2022/04/22 05:06:03;;;;;;;9.13;7.53;;;;;;;5.74;78.75;96662.94;6154935;28;20222;-82
2022/04/22 05:09:05;;;;;;;8.03;7.23;;;;;;;5.77;79.07;96638.31;6154693;28;20614;-82
2022/04/22 05:12:10;;;;;;;11.23;8.03;;;;;;;5.83;78.99;96636.03;6152996;28;20241;-83
2022/04/22 05:15:12;;;;;;;9.68;8.68;;;;;;;6.20;78.55;96634.00;6154044;28;20962;-82
2022/04/22 05:18:15;;;;;;;11.20;8.17;;;;;;;6.15;78.82;96633.53;6158469;28;20782;-83
2022/04/22 05:21:17;;;;;;;9.30;7.67;;;;;;;6.17;79.33;96630.81;6158160;28;20229;-82
2022/04/22 05:24:20;;;;;;;9.20;8.20;;;;;;;6.23;78.76;96638.16;6170200;28;20369;-83
2022/04/22 05:27:22;;;;;;;11.93;8.43;;;;;;;6.27;78.51;96639.59;6171100;28;20229;-83
2022/04/22 05:33:44;;;;;;;8.47;7.33;;;;;;;6.24;79.40;96642.44;6155150;28;20332;-82
2022/04/22 05:36:46;;;;;;;10.07;8.77;;;;;;;6.25;79.64;96644.94;6154731;28;20241;-82
2022/04/22 05:39:48;;;;;;;9.80;7.93;;;;;;;6.27;78.97;96647.47;6155999;28;20335;-82
2022/04/22 05:42:52;;;;;;;10.40;8.17;;;;;;;6.29;78.86;96642.91;6141509;28;20234;-82
2022/04/22 05:45:54;;;;;;;9.33;7.93;;;;;;;6.30;79.50;96648.03;6141457;28;20796;-82
2022/04/22 05:48:56;;;;;;;12.67;9.20;;;;;;;6.31;79.91;96648.84;6158645;28;20241;-82
2022/04/22 05:51:58;;;;;;;11.73;8.60;;;;;;;6.29;80.13;96648.13;6158934;28;20249;-82
2022/04/22 05:55:02;;;;;;;11.53;8.70;;;;;;;6.28;80.58;96646.50;6157510;28;20590;-83
2022/04/22 05:58:04;;;;;;;10.50;9.40;;;;;;;6.32;79.70;96647.06;6158293;28;20234;-82
2022/04/22 06:01:06;;;;;;;11.30;8.47;;;;;;;6.38;79.47;96646.59;6157348;28;20305;-83
2022/04/22 06:04:08;;;;;;;11.53;9.37;;;;;;;6.43;79.06;96653.13;6141458;28;20285;-82
2022/04/22 06:07:10;;;;;;;14.77;11.57;;;;;;;6.49;78.21;96641.34;6157840;28;20242;-82
2022/04/22 06:10:32;;;;;;;16.27;11.90;;;;;;;6.52;77.57;96655.00;6139853;28;20276;-83
2022/04/22 06:13:34;;;;;;;12.63;9.67;;;;;;;6.57;77.58;96655.47;6157732;28;20317;-82
2022/04/22 06:16:37;;;;;;;10.90;9.63;;;;;;;6.59;77.61;96650.94;6156747;28;20228;-82
2022/04/22 06:19:39;;;;;;;12.10;10.87;;;;;;;6.67;77.88;96650.31;6140646;28;20562;-83
2022/04/22 06:22:41;;;;;;;12.73;10.43;;;;;;;6.68;77.05;96654.63;6141063;28;20780;-82
2022/04/22 06:25:46;;;;;;;16.60;11.37;;;;;;;6.72;76.74;96652.56;6163035;28;20284;-82
2022/04/22 06:28:48;;;;;;;13.63;12.17;;;;;;;6.74;76.61;96655.91;6156224;28;20276;-83
2022/04/22 06:31:50;;;;;;;15.90;12.70;;;;;;;6.80;76.65;96658.00;6158331;28;20262;-82
2022/04/22 06:34:53;;;;;;;14.43;12.57;;;;;;;6.82;76.07;96656.94;6155883;28;20238;-83
2022/04/22 06:37:55;;;;;;;15.23;12.40;;;;;;;6.87;76.27;96660.03;6155296;28;20235;-82
2022/04/22 06:45:46;;;;;;;11.50;10.30;;;;;;;6.95;76.35;96652.34;6175584;28;20293;-82
2022/04/22 06:47:49;;;;;;;11.47;10.30;;;;;;;7.01;76.48;96651.84;6160520;28;20243;-82
2022/04/22 06:50:52;;;;;;;13.73;11.23;;;;;;;7.10;76.61;96647.63;6133396;28;20606;-82
2022/04/22 06:53:54;;;;;;;15.80;12.50;;;;;;;7.12;75.58;96650.13;6157003;28;20407;-82
2022/04/22 06:56:57;;;;;;;14.17;12.03;;;;;;;7.07;74.67;96644.44;6156951;28;20325;-82
2022/04/22 07:00:04;;;;;;;14.40;12.47;;;;;;;7.07;74.59;96660.19;6131532;28;20231;-83
2022/04/22 07:03:08;;;;;;;13.97;12.37;;;;;;;7.05;74.51;96662.91;6158173;28;20675;-82
2022/04/22 07:06:10;;;;;;;15.57;13.07;;;;;;;7.10;74.39;96657.28;6155718;28;20213;-82
2022/04/22 07:09:12;;;;;;;16.17;12.80;;;;;;;7.11;74.65;96659.78;6139723;28;20605;-82
2022/04/22 07:12:17;;;;;;;14.83;13.03;;;;;;;7.10;74.76;96665.97;6155983;28;20686;-82
2022/04/22 07:15:19;;;;;;;14.67;11.67;;;;;;;7.08;74.46;96667.09;6140301;28;20218;-82
2022/04/22 07:18:22;;;;;;;14.20;12.47;;;;;;;7.04;74.34;96677.81;6157276;28;20263;-82
2022/04/22 07:21:25;;;;;;;15.23;12.57;;;;;;;7.06;74.56;96669.00;6160522;28;20234;-82
2022/04/22 07:24:27;;;;;;;15.13;12.50;;;;;;;7.07;75.45;96670.66;6163856;28;20367;-82
2022/04/22 07:27:33;;;;;;;15.50;13.13;;;;;;;7.02;75.27;96677.13;6175267;28;20229;-82
2022/04/22 07:30:37;;;;;;;14.63;12.97;;;;;;;6.98;76.25;96669.66;6138851;28;20243;-82
2022/04/22 07:33:39;;;;;;;15.93;12.50;;;;;;;7.03;76.06;96675.31;6155383;28;20283;-82
2022/04/22 07:36:43;;;;;;;15.83;12.73;;;;;;;7.07;76.17;96668.06;6138739;28;20321;-82
2022/04/22 07:39:45;;;;;;;18.87;14.40;;;;;;;7.03;76.62;96654.34;6155023;28;21089;-82
2022/04/22 07:49:32;;;;;;;19.20;15.27;;;;;;;7.01;77.77;96666.75;6157768;28;20711;-81
2022/04/22 07:52:36;;;;;;;16.07;13.27;;;;;;;7.01;78.88;96664.13;6140353;28;20342;-82
2022/04/22 07:55:38;;;;;;;19.17;14.90;;;;;;;7.00;78.67;96657.22;6155674;28;20705;-82
2022/04/22 07:58:40;;;;;;;16.80;14.97;;;;;;;7.00;78.51;96662.44;6153755;28;20238;-81
2022/04/22 08:01:43;;;;;;;18.40;15.47;;;;;;;7.01;78.70;96661.50;6138343;28;20294;-82
2022/04/22 08:04:45;;;;;;;18.10;14.90;;;;;;;7.00;78.78;96655.41;6154753;28;20230;-81
2022/04/22 08:07:47;;;;;;;21.27;15.67;;;;;;;7.08;79.71;96651.34;6138306;28;20305;-81
2022/04/22 08:10:49;;;;;;;19.17;15.53;;;;;;;7.14;79.62;96658.69;6154213;28;20242;-83
2022/04/22 08:13:51;;;;;;;15.97;14.03;;;;;;;7.23;79.63;96650.91;6153507;28;20232;-81
2022/04/22 08:16:54;;;;;;;18.80;14.63;;;;;;;7.28;79.89;96653.16;6154592;28;20229;-81
2022/04/22 08:19:56;;;;;;;16.63;14.10;;;;;;;7.31;79.98;96651.09;6155380;28;20939;-81
2022/04/22 08:22:59;;;;;;;18.63;15.67;;;;;;;7.37;79.64;96645.34;6154600;28;20274;-81
2022/04/22 08:26:02;;;;;;;17.70;15.80;;;;;;;7.34;79.76;96645.59;6163257;28;20227;-82
2022/04/22 08:29:04;;;;;;;18.00;16.10;;;;;;;7.38;79.66;96641.75;6155324;28;20237;-82
2022/04/22 08:32:06;;;;;;;20.60;16.10;;;;;;;7.44;79.97;96645.66;6153499;28;20235;-82
2022/04/22 08:35:09;;;;;;;18.93;15.87;;;;;;;7.53;79.16;96646.66;6153627;28;20235;-82
2022/04/22 08:38:11;;;;;;;17.80;15.07;;;;;;;7.56;79.02;96634.13;6153648;28;20321;-82
2022/04/22 08:41:14;;;;;;;19.13;14.63;;;;;;;7.70;79.14;96636.38;6138001;28;20331;-81
2022/04/22 08:44:17;;;;;;;17.00;14.57;;;;;;;7.82;79.20;96636.28;6137784;28;20316;-82
2022/04/22 08:50:44;;;;;;;17.40;14.27;;;;;;;7.70;78.94;96635.53;6153738;28;20258;-82
2022/04/22 08:53:50;;;;;;;17.50;15.60;;;;;;;7.64;79.16;96638.72;6155572;28;20705;-81
2022/04/22 08:56:54;;;;;;;19.53;16.20;;;;;;;7.60;79.34;96634.66;6154075;28;20240;-82
2022/04/22 09:00:01;;;;;;;18.93;16.20;;;;;;;7.53;79.09;96633.53;6155408;28;20245;-82
2022/04/22 09:03:03;;;;;;;20.80;16.00;;;;;;;7.48;80.14;96630.47;6115489;28;20246;-82
2022/04/22 09:06:06;;;;;;;18.33;16.37;;;;;;;7.49;79.65;96632.13;6154030;28;20221;-82
2022/04/22 09:09:08;;;;;;;15.03;13.47;;;;;;;7.52;80.28;96632.69;6153569;28;20820;-82
2022/04/22 09:12:13;;;;;;;16.17;13.47;;;;;;;7.59;79.82;96636.47;6153724;28;20210;-82
2022/04/22 09:15:15;;;;;;;16.53;14.83;;;;;;;7.67;79.83;96634.03;6158653;28;20217;-81
2022/04/22 09:18:17;;;;;;;17.50;15.70;;;;;;;7.58;80.20;96626.94;6161379;28;20211;-81
2022/04/22 09:21:19;;;;;;;21.93;17.40;;;;;;;7.36;80.26;96632.34;6158410;28;20224;-81
2022/04/22 09:24:21;;;;;;;24.07;19.33;;;;;;;7.24;80.40;96643.84;6160190;28;20324;-82
2022/04/22 09:27:38;;;;;;;23.23;19.20;;;;;;;7.17;80.41;96642.72;6181128;28;20282;-81
2022/04/22 09:30:43;;;;;;;20.83;18.43;;;;;;;7.20;81.04;96639.81;6159912;28;20695;-82
2022/04/22 09:33:47;;;;;;;22.90;19.43;;;;;;;7.24;80.95;96638.59;6158795;28;20263;-81
2022/04/22 09:43:39;;;;;;;22.60;19.23;;;;;;;7.33;81.42;96638.66;6157731;28;20728;-81
2022/04/22 09:46:45;;;;;;;21.00;18.40;;;;;;;7.30;81.40;96641.53;6158268;28;20742;-82
2022/04/22 09:50:13;;;;;;;23.40;19.43;;;;;;;7.28;81.29;96651.38;6157149;28;20314;-81
2022/04/22 09:53:16;;;;;;;22.83;19.53;;;;;;;7.24;81.49;96642.06;6160134;28;20231;-81
2022/04/22 09:56:19;;;;;;;21.50;19.20;;;;;;;7.13;81.91;96644.75;6159085;28;20238;-81
2022/04/22 09:59:26;;;;;;;22.27;18.80;;;;;;;7.12;81.86;96647.50;6159580;28;20317;-81
2022/04/22 10:02:29;;;;;;;25.07;18.53;;;;;;;7.21;81.71;96639.69;6142010;28;20738;-81
2022/04/22 10:05:51;;;;;;;26.97;20.03;;;;;;;7.31;81.61;96632.72;6156684;28;20233;-81
2022/04/22 10:08:56;;;;;;;22.07;18.13;;;;;;;7.41;81.23;96641.47;6141612;28;20234;-82
2022/04/22 10:12:01;;;;;;;22.57;18.97;;;;;;;7.46;80.78;96633.22;6157687;28;20796;-81
2022/04/22 10:15:06;;;;;;;25.50;18.93;;;;;;;7.45;80.87;96623.69;6156958;28;20310;-82
2022/04/22 10:18:09;;;;;;;21.13;16.67;;;;;;;7.54;80.89;96628.16;6157231;28;20220;-81
2022/04/22 10:21:14;;;;;;;21.70;17.77;;;;;;;7.63;80.43;96632.63;6157429;28;20257;-81
2022/04/22 10:24:19;;;;;;;22.57;18.60;;;;;;;7.69;80.23;96629.47;6157540;28;20225;-81
2022/04/22 10:27:21;;;;;;;26.40;19.23;;;;;;;7.70;80.46;96627.66;6171715;28;20240;-81
2022/04/22 10:30:25;;;;;;;23.30;20.63;;;;;;;7.71;80.60;96631.97;6141327;28;20302;-81
2022/04/22 10:33:44;;;;;;;22.90;20.33;;;;;;;7.68;80.72;96629.63;6156962;28;20307;-81
2022/04/22 10:36:55;;;;;;;23.43;18.77;;;;;;;7.63;80.61;96624.75;6140281;28;20314;-82
2022/04/22 10:39:57;;;;;;;24.90;20.40;;;;;;;7.62;81.00;96628.34;6157351;28;20235;-82
2022/04/22 10:43:02;;;;;;;22.77;19.37;;;;;;;7.54;81.07;96630.78;6140002;28;20248;-82
2022/04/22 10:49:46;;;;;;;24.27;18.93;;;;;;;7.68;81.33;96638.31;6157114;28;20234;-82
2022/04/22 10:53:08;;;;;;;22.60;19.27;;;;;;;7.75;81.46;96628.97;6158129;28;20370;-82
2022/04/22 10:56:25;;;;;;;19.97;17.37;;;;;;;7.77;81.67;96639.34;6171378;28;20234;-82
2022/04/22 10:59:32;;;;;;;19.30;16.60;;;;;;;7.76;80.95;96629.78;6132324;28;20553;-82
2022/04/22 11:02:41;;;;;;;20.70;17.07;;;;;;;7.79;81.56;96630.34;6152774;28;20250;-82
2022/04/22 11:05:46;;;;;;;20.57;17.70;;;;;;;7.84;81.26;96635.22;6155376;28;20235;-83
2022/04/22 11:09:07;;;;;;;21.53;17.00;;;;;;;7.93;80.94;96633.56;6139891;28;20237;-82
2022/04/22 11:12:58;;;;;;;20.33;17.67;;;;;;;8.00;81.83;96630.28;6156451;28;20439;-82
2022/04/22 11:16:05;;;;;;;18.33;16.40;;;;;;;8.02;80.83;96635.41;6155661;28;20773;-82
2022/04/22 11:19:19;;;;;;;20.37;16.67;;;;;;;8.08;80.78;96629.63;6156437;28;20546;-82
2022/04/22 11:22:56;;;;;;;21.23;18.37;;;;;;;8.15;80.47;96626.34;6155254;28;20246;-82
2022/04/22 11:25:59;;;;;;;20.97;18.33;;;;;;;8.20;80.19;96627.72;6160789;28;20238;-82
2022/04/22 11:29:06;;;;;;;22.17;19.27;;;;;;;8.24;80.60;96629.13;6155487;28;20232;-82
2022/04/22 11:32:20;;;;;;;21.07;18.33;;;;;;;8.23;79.71;96628.28;6157097;28;20279;-82
2022/04/22 11:35:26;;;;;;;20.43;16.83;;;;;;;8.29;80.37;96627.72;6138200;28;20248;-82
2022/04/22 11:38:28;;;;;;;22.77;18.50;;;;;;;8.29;79.81;96625.09;6154256;28;20732;-82
2022/04/22 11:41:31;;;;;;;19.97;17.83;;;;;;;8.30;79.92;96632.03;6154617;28;20780;-82
2022/04/22 11:44:33;;;;;;;20.40;17.27;;;;;;;8.33;79.60;96626.53;6155024;28;20236;-82
2022/04/22 11:47:36;;;;;;;21.40;19.03;;;;;;;8.31;79.79;96622.34;6139344;28;20239;-82
2022/04/22 11:50:43;;;;;;;21.03;18.27;;;;;;;8.28;80.47;96623.47;6138530;28;20233;-82
2022/04/22 11:53:54;;;;;;;23.03;20.20;;;;;;;8.26;80.43;96621.94;6156957;28;20233;-82
2022/04/22 11:56:56;;;;;;;19.27;17.17;;;;;;;8.15;81.17;96628.97;6154543;28;20237;-82
2022/04/22 12:06:42;;;;;;;22.77;19.53;;;;;;;8.10;80.84;96620.63;6154629;28;20249;-83
2022/04/22 12:09:44;;;;;;;23.67;20.07;;;;;;;7.98;80.59;96613.84;6155247;28;20259;-82
2022/04/22 12:12:48;;;;;;;26.83;21.07;;;;;;;7.98;81.54;96626.16;6138557;28;20316;-82
2022/04/22 12:15:50;;;;;;;20.50;18.40;;;;;;;7.96;81.27;96618.41;6154284;28;20598;-82
2022/04/22 12:19:09;;;;;;;23.07;20.37;;;;;;;8.10;81.13;96623.25;6186143;28;20234;-82
2022/04/22 12:22:12;;;;;;;29.50;25.87;;;;;;;8.18;81.70;96617.34;6160682;28;20235;-82
2022/04/22 12:25:22;;;;;;;23.00;20.23;;;;;;;8.23;80.96;96615.16;6160597;28;20472;-82
2022/04/22 12:28:26;;;;;;;20.27;17.83;;;;;;;8.33;80.88;96613.41;6165782;28;20236;-82
2022/04/22 12:31:30;;;;;;;24.20;21.60;;;;;;;8.37;81.12;96612.19;6156938;28;20268;-83
2022/04/22 12:34:34;;;;;;;21.63;19.47;;;;;;;8.31;80.86;96615.31;6153616;28;20236;-82
2022/04/22 12:37:41;;;;;;;23.27;20.57;;;;;;;8.21;81.17;96613.59;6152662;28;20653;-82
2022/04/22 12:40:45;;;;;;;24.43;20.50;;;;;;;8.17;81.36;96613.06;6139416;28;20229;-82
2022/04/22 12:43:49;;;;;;;23.20;20.33;;;;;;;8.12;81.70;96615.25;6138748;28;20620;-82
2022/04/22 12:53:47;;;;;;;21.40;17.63;;;;;;;8.06;82.24;96607.91;6156027;28;20241;-82
2022/04/22 12:56:54;;;;;;;22.90;19.47;;;;;;;8.10;82.09;96599.63;6155365;28;20655;-82
2022/04/22 12:59:57;;;;;;;24.83;20.30;;;;;;;8.07;82.43;96605.16;6153939;28;20324;-82
2022/04/22 13:03:19;;;;;;;21.53;19.23;;;;;;;8.01;82.80;96603.03;6140280;28;20236;-82
2022/04/22 13:06:42;;;;;;;23.13;20.63;;;;;;;8.01;82.32;96600.41;6154982;28;20690;-82
2022/04/22 13:09:45;;;;;;;21.97;19.70;;;;;;;7.87;82.69;96600.81;6154783;28;20241;-83
2022/04/22 13:12:49;;;;;;;21.37;19.17;;;;;;;7.86;82.98;96600.94;6154881;28;20734;-82
2022/04/22 13:15:51;;;;;;;22.53;19.67;;;;;;;7.87;83.09;96592.94;6154979;28;20217;-81
2022/04/22 13:18:53;;;;;;;18.33;16.43;;;;;;;7.89;83.55;96598.03;6154975;28;20218;-81
2022/04/22 13:21:55;;;;;;;19.23;17.20;;;;;;;7.94;83.03;96599.31;6153736;28;20673;-82
2022/04/22 13:24:57;;;;;;;23.17;20.70;;;;;;;7.87;82.84;96597.34;6153176;28;20268;-82
2022/04/22 13:27:59;;;;;;;21.60;19.33;;;;;;;7.88;83.43;96594.59;6158457;28;20858;-82
2022/04/22 13:31:01;;;;;;;20.63;18.47;;;;;;;7.90;83.57;96603.16;6161142;28;20238;-82
2022/04/22 13:34:04;;;;;;;20.13;18.00;;;;;;;7.95;83.35;96594.88;6155557;28;20256;-81
2022/04/22 13:37:06;;;;;;;20.30;18.30;;;;;;;7.89;83.06;96588.34;6136543;28;20234;-82
2022/04/22 13:40:09;;;;;;;21.10;17.77;;;;;;;7.89;83.70;96596.22;6151261;28;20400;-82
2022/04/22 13:43:11;;;;;;;21.27;19.07;;;;;;;7.88;83.59;96596.38;6152961;28;20332;-81
2022/04/22 13:52:55;;;;;;;20.43;17.43;;;;;;;7.82;83.32;96587.22;6169594;28;20247;-82
2022/04/22 13:55:57;;;;;;;17.90;15.63;;;;;;;7.89;83.06;96592.75;6128929;28;20246;-82
2022/04/22 13:58:59;;;;;;;17.57;15.77;;;;;;;7.94;83.30;96599.31;6148485;28;20571;-82
2022/04/22 14:02:01;;;;;;;15.90;14.23;;;;;;;7.96;83.27;96602.63;6157079;28;20314;-82
2022/04/22 14:05:04;;;;;;;15.90;13.90;;;;;;;7.99;83.42;96604.13;6157229;28;20235;-82
2022/04/22 14:08:07;;;;;;;15.47;13.97;;;;;;;7.99;83.20;96602.34;6159241;28;20260;-82
2022/04/22 14:11:09;;;;;;;16.13;14.60;;;;;;;7.97;83.33;96609.56;6157634;28;20259;-82
2022/04/22 14:14:11;;;;;;;17.77;15.90;;;;;;;7.93;83.37;96608.16;6156359;28;20242;-82
2022/04/22 14:17:14;;;;;;;17.13;15.17;;;;;;;7.93;83.41;96607.31;6171955;28;20840;-82
2022/04/22 14:20:16;;;;;;;19.00;15.33;;;;;;;7.91;83.33;96609.22;6135332;28;20223;-82
2022/04/22 14:23:20;;;;;;;17.30;15.60;;;;;;;7.94;83.76;96607.19;6138826;28;20864;-81
2022/04/22 14:26:22;;;;;;;16.47;14.87;;;;;;;7.97;83.53;96613.97;6172583;28;20325;-81
2022/04/22 14:29:24;;;;;;;17.77;15.93;;;;;;;7.95;83.17;96618.53;6150501;28;20728;-82
2022/04/22 14:32:26;;;;;;;14.53;13.10;;;;;;;7.91;83.52;96622.38;6140771;28;20229;-82
2022/04/22 14:35:28;;;;;;;17.57;15.77;;;;;;;7.87;83.54;96627.06;6141599;28;20227;-82
2022/04/22 14:38:30;;;;;;;17.53;15.70;;;;;;;7.82;83.68;96623.16;6140273;28;20235;-82
2022/04/22 14:41:32;;;;;;;15.80;14.10;;;;;;;7.82;83.65;96631.88;6155634;28;20319;-82
2022/04/22 14:44:34;;;;;;;13.50;12.10;;;;;;;7.84;83.39;96642.25;6156090;28;20245;-82
2022/04/22 14:47:37;;;;;;;17.40;15.60;;;;;;;7.82;83.99;96638.91;6140506;28;20242;-82
2022/04/22 14:50:40;;;;;;;16.13;14.53;;;;;;;7.84;83.95;96634.38;6155633;28;20776;-82
2022/04/22 14:53:43;;;;;;;15.87;14.23;;;;;;;7.87;83.38;96642.84;6156970;28;20317;-82
2022/04/22 14:56:45;;;;;;;13.13;11.87;;;;;;;7.89;83.72;96635.63;6156158;28;20316;-82
2022/04/22 14:59:48;;;;;;;13.30;11.93;;;;;;;7.91;83.71;96646.00;6148075;28;20369;-82
2022/04/22 15:02:49;;;;;;;15.57;14.07;;;;;;;7.93;83.93;96651.97;6154604;28;20247;-82
2022/04/22 15:05:52;;;;;;;14.53;13.03;;;;;;;7.93;84.15;96646.72;6139833;28;20251;-82
2022/04/22 15:08:54;;;;;;;13.90;12.50;;;;;;;7.89;83.67;96645.31;6155589;28;20717;-82
2022/04/22 15:11:56;;;;;;;13.87;12.47;;;;;;;7.88;84.05;96639.25;6154197;28;20241;-82
2022/04/22 15:14:58;;;;;;;13.80;12.17;;;;;;;7.88;83.78;96648.91;6155751;28;20317;-82
2022/04/22 15:24:42;;;;;;;16.00;14.23;;;;;;;7.86;84.34;96641.16;6157998;28;20253;-82
2022/04/22 15:27:44;;;;;;;13.90;12.53;;;;;;;7.88;84.48;96638.41;6141729;28;20240;-82
2022/04/22 15:31:23;;;;;;;19.17;17.27;;;;;;;7.81;83.79;96643.34;6141959;28;20309;-82
2022/04/22 15:34:24;;;;;;;18.23;16.30;;;;;;;7.71;84.01;96634.59;6157012;28;20326;-82
2022/04/22 15:37:26;;;;;;;18.63;16.77;;;;;;;7.71;84.27;96642.47;6138839;28;20244;-83
2022/04/22 15:40:30;;;;;;;17.77;15.93;;;;;;;7.68;84.82;96640.97;6175563;28;20653;-82
2022/04/22 15:43:43;;;;;;;19.33;16.57;;;;;;;7.68;84.38;96635.69;6155074;28;20231;-82